sensor_id;sensor_type;location;lat;lon;timestamp;P1;P2;P0
73148;PMS7003;61346;48.930;2.266;2023-03-01T00:01:26;20.50;15.75;10.75
73148;PMS7003;61346;48.930;2.266;2023-03-01T00:04:02;19.25;18.00;13.00
73148;PMS7003;61346;48.930;2.266;2023-03-01T00:06:28;20.50;16.25;10.25
73148;PMS7003;61346;48.930;2.266;2023-03-01T00:08:53;21.75;20.50;13.00
73148;PMS7003;61346;48.930;2.266;2023-03-01T00:14:11;17.00;13.75;12.00
73148;PMS7003;61346;48.930;2.266;2023-03-01T00:16:37;24.50;18.50;14.25
73148;PMS7003;61346;48.930;2.266;2023-03-01T00:19:32;19.75;18.00;13.00
73148;PMS7003;61346;48.930;2.266;2023-03-01T00:21:57;18.25;13.75;10.50
73148;PMS7003;61346;48.930;2.266;2023-03-01T00:24:25;16.00;16.00;12.00
73148;PMS7003;61346;48.930;2.266;2023-03-01T00:26:55;20.00;17.00;13.00
73148;PMS7003;61346;48.930;2.266;2023-03-01T00:29:21;16.25;16.00;11.75
73148;PMS7003;61346;48.930;2.266;2023-03-01T00:31:47;17.75;16.50;12.50
73148;PMS7003;61346;48.930;2.266;2023-03-01T00:34:13;23.00;20.25;13.50
73148;PMS7003;61346;48.930;2.266;2023-03-01T00:36:47;23.00;16.50;13.00
73148;PMS7003;61346;48.930;2.266;2023-03-01T00:39:50;21.25;16.75;12.00
73148;PMS7003;61346;48.930;2.266;2023-03-01T00:42:24;26.75;20.00;12.75
73148;PMS7003;61346;48.930;2.266;2023-03-01T00:44:49;16.75;13.75;12.00
73148;PMS7003;61346;48.930;2.266;2023-03-01T00:47:25;16.25;16.25;11.00
73148;PMS7003;61346;48.930;2.266;2023-03-01T00:49:50;20.00;14.75;9.75
73148;PMS7003;61346;48.930;2.266;2023-03-01T00:52:15;18.75;13.50;9.75
73148;PMS7003;61346;48.930;2.266;2023-03-01T00:54:41;17.75;16.00;11.75
73148;PMS7003;61346;48.930;2.266;2023-03-01T00:57:06;17.75;16.25;11.25
73148;PMS7003;61346;48.930;2.266;2023-03-01T00:59:34;17.75;15.00;12.00
73148;PMS7003;61346;48.930;2.266;2023-03-01T01:02:00;21.25;18.00;13.00
73148;PMS7003;61346;48.930;2.266;2023-03-01T01:04:25;19.75;19.00;10.50
73148;PMS7003;61346;48.930;2.266;2023-03-01T01:06:54;18.75;17.00;12.25
73148;PMS7003;61346;48.930;2.266;2023-03-01T01:09:30;22.25;19.25;12.25
73148;PMS7003;61346;48.930;2.266;2023-03-01T01:11:55;19.75;17.50;12.00
73148;PMS7003;61346;48.930;2.266;2023-03-01T01:14:21;18.75;17.75;13.00
73148;PMS7003;61346;48.930;2.266;2023-03-01T01:16:56;21.00;17.50;12.75
73148;PMS7003;61346;48.930;2.266;2023-03-01T01:19:21;17.50;12.25;8.00
73148;PMS7003;61346;48.930;2.266;2023-03-01T01:21:47;17.00;13.00;9.75
73148;PMS7003;61346;48.930;2.266;2023-03-01T01:24:19;17.25;13.00;9.00
73148;PMS7003;61346;48.930;2.266;2023-03-01T01:26:50;20.75;17.25;12.00
73148;PMS7003;61346;48.930;2.266;2023-03-01T01:29:15;27.75;21.00;14.25
73148;PMS7003;61346;48.930;2.266;2023-03-01T01:32:03;16.75;14.75;11.00
73148;PMS7003;61346;48.930;2.266;2023-03-01T01:34:29;17.00;15.50;11.50
73148;PMS7003;61346;48.930;2.266;2023-03-01T01:37:00;21.75;18.75;12.75
73148;PMS7003;61346;48.930;2.266;2023-03-01T01:39:27;20.75;14.25;8.50
73148;PMS7003;61346;48.930;2.266;2023-03-01T01:41:53;17.50;17.50;12.75
73148;PMS7003;61346;48.930;2.266;2023-03-01T01:44:28;23.25;20.75;14.75
73148;PMS7003;61346;48.930;2.266;2023-03-01T01:52:50;21.25;18.75;13.00
73148;PMS7003;61346;48.930;2.266;2023-03-01T01:55:32;20.50;18.50;11.00
73148;PMS7003;61346;48.930;2.266;2023-03-01T01:58:01;26.50;22.00;12.00
73148;PMS7003;61346;48.930;2.266;2023-03-01T02:00:29;16.75;15.75;11.50
73148;PMS7003;61346;48.930;2.266;2023-03-01T02:02:56;17.00;16.00;10.50
73148;PMS7003;61346;48.930;2.266;2023-03-01T02:08:18;19.75;16.75;12.25
73148;PMS7003;61346;48.930;2.266;2023-03-01T02:10:46;18.25;15.75;10.50
73148;PMS7003;61346;48.930;2.266;2023-03-01T02:13:32;20.00;18.75;12.50
73148;PMS7003;61346;48.930;2.266;2023-03-01T02:15:59;19.75;17.25;11.75
73148;PMS7003;61346;48.930;2.266;2023-03-01T02:18:27;19.75;16.50;12.00
73148;PMS7003;61346;48.930;2.266;2023-03-01T02:23:43;24.25;20.25;13.25
73148;PMS7003;61346;48.930;2.266;2023-03-01T02:28:39;25.25;21.25;15.25
73148;PMS7003;61346;48.930;2.266;2023-03-01T02:31:19;18.25;15.50;10.00
73148;PMS7003;61346;48.930;2.266;2023-03-01T02:34:04;22.50;15.25;12.50
73148;PMS7003;61346;48.930;2.266;2023-03-01T02:36:38;21.50;18.50;13.75
73148;PMS7003;61346;48.930;2.266;2023-03-01T02:39:17;19.00;16.25;12.00
73148;PMS7003;61346;48.930;2.266;2023-03-01T02:42:04;32.75;23.00;15.00
73148;PMS7003;61346;48.930;2.266;2023-03-01T02:44:37;23.25;21.75;14.50
73148;PMS7003;61346;48.930;2.266;2023-03-01T02:47:11;24.00;19.25;13.00
73148;PMS7003;61346;48.930;2.266;2023-03-01T02:49:39;20.25;19.25;13.25
73148;PMS7003;61346;48.930;2.266;2023-03-01T02:52:21;16.50;15.25;10.25
73148;PMS7003;61346;48.930;2.266;2023-03-01T02:55:08;20.75;18.50;13.00
73148;PMS7003;61346;48.930;2.266;2023-03-01T02:57:38;20.75;16.25;12.75
73148;PMS7003;61346;48.930;2.266;2023-03-01T03:00:09;19.25;18.00;12.75
73148;PMS7003;61346;48.930;2.266;2023-03-01T03:02:44;25.75;16.50;12.00
73148;PMS7003;61346;48.930;2.266;2023-03-01T03:05:31;18.25;15.25;11.50
73148;PMS7003;61346;48.930;2.266;2023-03-01T03:07:59;24.00;19.75;15.00
73148;PMS7003;61346;48.930;2.266;2023-03-01T03:10:30;22.25;19.50;15.00
73148;PMS7003;61346;48.930;2.266;2023-03-01T03:13:11;16.00;13.50;9.00
73148;PMS7003;61346;48.930;2.266;2023-03-01T03:15:38;19.25;17.25;13.00
73148;PMS7003;61346;48.930;2.266;2023-03-01T03:18:06;20.25;18.50;14.50
73148;PMS7003;61346;48.930;2.266;2023-03-01T03:20:40;21.00;17.00;10.50
73148;PMS7003;61346;48.930;2.266;2023-03-01T03:23:07;15.75;15.75;11.25
73148;PMS7003;61346;48.930;2.266;2023-03-01T03:25:33;21.25;18.25;13.50
73148;PMS7003;61346;48.930;2.266;2023-03-01T03:28:02;13.75;9.00;6.50
73148;PMS7003;61346;48.930;2.266;2023-03-01T03:30:38;22.00;18.75;12.75
73148;PMS7003;61346;48.930;2.266;2023-03-01T03:33:30;16.00;16.00;13.00
73148;PMS7003;61346;48.930;2.266;2023-03-01T03:35:56;16.75;15.50;11.75
73148;PMS7003;61346;48.930;2.266;2023-03-01T03:38:23;22.25;16.00;12.00
73148;PMS7003;61346;48.930;2.266;2023-03-01T03:41:07;17.50;16.00;12.00
73148;PMS7003;61346;48.930;2.266;2023-03-01T03:43:34;24.00;19.50;12.75
73148;PMS7003;61346;48.930;2.266;2023-03-01T03:46:03;7.75;7.25;5.75
73148;PMS7003;61346;48.930;2.266;2023-03-01T03:48:41;19.25;18.25;12.75
73148;PMS7003;61346;48.930;2.266;2023-03-01T03:51:17;21.50;17.50;13.25
73148;PMS7003;61346;48.930;2.266;2023-03-01T03:53:48;17.50;15.50;12.00
73148;PMS7003;61346;48.930;2.266;2023-03-01T03:56:13;20.25;18.50;12.25
73148;PMS7003;61346;48.930;2.266;2023-03-01T03:58:39;18.00;16.25;12.25
73148;PMS7003;61346;48.930;2.266;2023-03-01T04:01:09;28.00;18.50;12.75
73148;PMS7003;61346;48.930;2.266;2023-03-01T04:03:35;18.25;15.75;13.00
73148;PMS7003;61346;48.930;2.266;2023-03-01T04:06:00;21.25;13.50;12.00
73148;PMS7003;61346;48.930;2.266;2023-03-01T04:08:28;23.50;21.75;14.75
73148;PMS7003;61346;48.930;2.266;2023-03-01T04:11:05;26.25;19.50;14.50
73148;PMS7003;61346;48.930;2.266;2023-03-01T04:13:54;28.75;21.75;15.00
73148;PMS7003;61346;48.930;2.266;2023-03-01T04:16:24;20.75;16.25;12.25
73148;PMS7003;61346;48.930;2.266;2023-03-01T04:18:50;23.00;20.25;14.00
73148;PMS7003;61346;48.930;2.266;2023-03-01T04:21:28;20.25;17.25;14.00
73148;PMS7003;61346;48.930;2.266;2023-03-01T04:23:53;18.00;18.00;11.00
73148;PMS7003;61346;48.930;2.266;2023-03-01T04:26:22;22.75;19.50;13.25
73148;PMS7003;61346;48.930;2.266;2023-03-01T04:28:47;24.00;22.50;15.00
73148;PMS7003;61346;48.930;2.266;2023-03-01T04:31:16;23.00;15.75;9.00
73148;PMS7003;61346;48.930;2.266;2023-03-01T04:36:36;20.25;17.50;13.25
73148;PMS7003;61346;48.930;2.266;2023-03-01T04:39:03;21.00;20.75;15.75
73148;PMS7003;61346;48.930;2.266;2023-03-01T04:41:37;25.25;22.00;15.50
73148;PMS7003;61346;48.930;2.266;2023-03-01T04:44:26;22.00;21.75;13.00
73148;PMS7003;61346;48.930;2.266;2023-03-01T04:46:51;24.25;21.00;12.25
73148;PMS7003;61346;48.930;2.266;2023-03-01T04:49:19;24.75;21.00;15.25
73148;PMS7003;61346;48.930;2.266;2023-03-01T04:51:45;23.50;19.00;15.75
73148;PMS7003;61346;48.930;2.266;2023-03-01T04:54:10;21.50;12.50;7.75
73148;PMS7003;61346;48.930;2.266;2023-03-01T04:56:35;33.50;22.25;16.00
73148;PMS7003;61346;48.930;2.266;2023-03-01T04:59:01;24.50;20.25;14.00
73148;PMS7003;61346;48.930;2.266;2023-03-01T05:01:35;25.50;17.75;13.50
73148;PMS7003;61346;48.930;2.266;2023-03-01T05:04:22;31.25;27.50;18.00
73148;PMS7003;61346;48.930;2.266;2023-03-01T05:07:15;24.50;22.00;15.25
73148;PMS7003;61346;48.930;2.266;2023-03-01T05:09:46;18.25;14.50;12.00
73148;PMS7003;61346;48.930;2.266;2023-03-01T05:12:25;19.75;19.00;14.00
73148;PMS7003;61346;48.930;2.266;2023-03-01T05:14:50;21.25;20.75;16.25
73148;PMS7003;61346;48.930;2.266;2023-03-01T05:17:32;24.75;22.50;15.75
73148;PMS7003;61346;48.930;2.266;2023-03-01T05:20:16;26.50;23.00;15.75
73148;PMS7003;61346;48.930;2.266;2023-03-01T05:22:42;21.75;20.25;15.00
73148;PMS7003;61346;48.930;2.266;2023-03-01T05:25:07;27.75;19.00;15.00
73148;PMS7003;61346;48.930;2.266;2023-03-01T05:27:34;30.50;28.75;19.50
73148;PMS7003;61346;48.930;2.266;2023-03-01T05:30:00;26.75;22.25;18.00
73148;PMS7003;61346;48.930;2.266;2023-03-01T05:32:40;27.50;22.50;14.75
73148;PMS7003;61346;48.930;2.266;2023-03-01T05:35:12;26.00;22.75;16.25
73148;PMS7003;61346;48.930;2.266;2023-03-01T05:37:50;26.00;25.00;16.25
73148;PMS7003;61346;48.930;2.266;2023-03-01T05:40:25;31.25;27.50;17.50
73148;PMS7003;61346;48.930;2.266;2023-03-01T05:43:09;27.75;22.00;15.00
73148;PMS7003;61346;48.930;2.266;2023-03-01T05:45:38;16.50;14.50;11.50
73148;PMS7003;61346;48.930;2.266;2023-03-01T05:48:06;33.75;24.75;16.25
73148;PMS7003;61346;48.930;2.266;2023-03-01T05:50:34;37.75;30.50;20.00
73148;PMS7003;61346;48.930;2.266;2023-03-01T05:53:02;30.50;25.25;19.00
73148;PMS7003;61346;48.930;2.266;2023-03-01T05:55:30;32.25;24.00;15.00
73148;PMS7003;61346;48.930;2.266;2023-03-01T05:58:04;31.50;29.75;21.00
73148;PMS7003;61346;48.930;2.266;2023-03-01T06:00:32;25.00;17.00;12.25
73148;PMS7003;61346;48.930;2.266;2023-03-01T06:02:58;27.25;24.00;17.25
73148;PMS7003;61346;48.930;2.266;2023-03-01T06:05:24;24.75;21.25;15.75
73148;PMS7003;61346;48.930;2.266;2023-03-01T06:07:50;29.00;27.25;19.50
73148;PMS7003;61346;48.930;2.266;2023-03-01T06:10:17;37.00;29.75;19.50
73148;PMS7003;61346;48.930;2.266;2023-03-01T06:13:02;28.50;24.25;15.75
73148;PMS7003;61346;48.930;2.266;2023-03-01T06:15:28;29.50;26.50;18.00
73148;PMS7003;61346;48.930;2.266;2023-03-01T06:17:54;25.25;19.75;15.75
73148;PMS7003;61346;48.930;2.266;2023-03-01T06:23:14;32.00;29.00;19.00
73148;PMS7003;61346;48.930;2.266;2023-03-01T06:25:40;27.75;25.00;16.00
73148;PMS7003;61346;48.930;2.266;2023-03-01T06:28:06;36.00;29.25;22.00
73148;PMS7003;61346;48.930;2.266;2023-03-01T06:30:33;37.50;31.75;23.50
73148;PMS7003;61346;48.930;2.266;2023-03-01T06:33:00;30.75;28.25;21.25
73148;PMS7003;61346;48.930;2.266;2023-03-01T08:11:14;40.25;32.50;22.75
73148;PMS7003;61346;48.930;2.266;2023-03-01T08:14:09;37.00;31.00;20.00
73148;PMS7003;61346;48.930;2.266;2023-03-01T08:16:37;32.25;31.25;22.00
73148;PMS7003;61346;48.930;2.266;2023-03-01T08:19:07;34.75;29.00;19.00
73148;PMS7003;61346;48.930;2.266;2023-03-01T08:21:53;38.00;33.75;23.50
73148;PMS7003;61346;48.930;2.266;2023-03-01T08:24:18;39.50;37.00;25.50
73148;PMS7003;61346;48.930;2.266;2023-03-01T08:32:14;50.25;39.25;24.50
73148;PMS7003;61346;48.930;2.266;2023-03-01T08:34:39;39.75;33.50;24.50
73148;PMS7003;61346;48.930;2.266;2023-03-01T08:37:04;37.75;29.75;19.75
73148;PMS7003;61346;48.930;2.266;2023-03-01T08:39:30;27.00;23.25;11.00
73148;PMS7003;61346;48.930;2.266;2023-03-01T08:41:56;41.00;34.75;23.75
73148;PMS7003;61346;48.930;2.266;2023-03-01T08:47:06;32.00;30.50;21.50
73148;PMS7003;61346;48.930;2.266;2023-03-01T08:49:37;36.75;32.75;23.50
73148;PMS7003;61346;48.930;2.266;2023-03-01T08:52:02;33.25;33.25;21.50
73148;PMS7003;61346;48.930;2.266;2023-03-01T08:54:31;41.75;36.50;22.50
73148;PMS7003;61346;48.930;2.266;2023-03-01T08:56:56;35.00;33.50;24.00
73148;PMS7003;61346;48.930;2.266;2023-03-01T08:59:24;39.25;35.25;22.50
73148;PMS7003;61346;48.930;2.266;2023-03-01T09:01:50;36.00;33.50;23.50
73148;PMS7003;61346;48.930;2.266;2023-03-01T09:04:15;39.25;37.00;25.75
73148;PMS7003;61346;48.930;2.266;2023-03-01T09:06:41;42.50;37.50;24.50
73148;PMS7003;61346;48.930;2.266;2023-03-01T09:09:11;46.25;34.50;26.00
73148;PMS7003;61346;48.930;2.266;2023-03-01T09:11:41;41.50;37.25;26.25
73148;PMS7003;61346;48.930;2.266;2023-03-01T09:14:10;41.75;36.25;24.00
73148;PMS7003;61346;48.930;2.266;2023-03-01T09:16:36;40.75;36.00;24.25
73148;PMS7003;61346;48.930;2.266;2023-03-01T09:19:04;47.75;38.25;25.75
73148;PMS7003;61346;48.930;2.266;2023-03-01T09:21:30;26.75;22.75;15.00
73148;PMS7003;61346;48.930;2.266;2023-03-01T09:24:05;44.75;39.25;26.00
73148;PMS7003;61346;48.930;2.266;2023-03-01T09:26:56;42.50;38.50;26.00
73148;PMS7003;61346;48.930;2.266;2023-03-01T09:29:22;44.75;38.75;26.00
73148;PMS7003;61346;48.930;2.266;2023-03-01T09:31:48;38.00;30.50;22.00
73148;PMS7003;61346;48.930;2.266;2023-03-01T09:34:13;44.75;38.00;26.00
73148;PMS7003;61346;48.930;2.266;2023-03-01T09:36:44;35.25;31.75;22.25
73148;PMS7003;61346;48.930;2.266;2023-03-01T09:39:09;42.50;38.50;24.00
73148;PMS7003;61346;48.930;2.266;2023-03-01T09:41:48;30.50;24.50;18.25
73148;PMS7003;61346;48.930;2.266;2023-03-01T09:44:28;44.00;34.75;24.25
73148;PMS7003;61346;48.930;2.266;2023-03-01T09:47:01;35.00;31.50;23.00
73148;PMS7003;61346;48.930;2.266;2023-03-01T09:49:30;40.75;32.50;22.25
73148;PMS7003;61346;48.930;2.266;2023-03-01T09:55:00;37.50;32.25;25.25
73148;PMS7003;61346;48.930;2.266;2023-03-01T09:57:28;38.50;28.75;19.00
73148;PMS7003;61346;48.930;2.266;2023-03-01T10:03:00;35.75;28.25;18.75
73148;PMS7003;61346;48.930;2.266;2023-03-01T10:05:37;42.25;36.50;24.00
73148;PMS7003;61346;48.930;2.266;2023-03-01T10:08:26;45.00;38.25;27.50
73148;PMS7003;61346;48.930;2.266;2023-03-01T10:11:01;43.50;34.50;24.00
73148;PMS7003;61346;48.930;2.266;2023-03-01T10:13:37;35.50;29.75;20.00
73148;PMS7003;61346;48.930;2.266;2023-03-01T10:16:35;40.00;35.00;24.50
73148;PMS7003;61346;48.930;2.266;2023-03-01T10:19:03;39.00;34.50;24.25
73148;PMS7003;61346;48.930;2.266;2023-03-01T10:21:32;43.00;36.75;24.50
73148;PMS7003;61346;48.930;2.266;2023-03-01T10:24:10;40.50;32.00;21.00
73148;PMS7003;61346;48.930;2.266;2023-03-01T10:29:37;36.25;29.75;19.75
73148;PMS7003;61346;48.930;2.266;2023-03-01T10:32:13;42.50;37.50;25.00
73148;PMS7003;61346;48.930;2.266;2023-03-01T10:34:42;36.50;36.00;21.75
73148;PMS7003;61346;48.930;2.266;2023-03-01T10:37:17;37.75;35.25;21.25
73148;PMS7003;61346;48.930;2.266;2023-03-01T10:40:18;40.00;34.25;23.00
73148;PMS7003;61346;48.930;2.266;2023-03-01T10:42:47;37.75;31.25;21.00
73148;PMS7003;61346;48.930;2.266;2023-03-01T10:45:26;42.50;36.25;25.00
73148;PMS7003;61346;48.930;2.266;2023-03-01T10:51:07;40.00;35.00;23.00
73148;PMS7003;61346;48.930;2.266;2023-03-01T10:53:34;33.50;24.25;17.75
73148;PMS7003;61346;48.930;2.266;2023-03-01T10:56:08;32.00;30.75;22.75
73148;PMS7003;61346;48.930;2.266;2023-03-01T10:58:36;28.75;27.50;18.50
73148;PMS7003;61346;48.930;2.266;2023-03-01T11:03:46;35.75;32.25;23.25
73148;PMS7003;61346;48.930;2.266;2023-03-01T11:07:00;31.25;26.00;19.25
73148;PMS7003;61346;48.930;2.266;2023-03-01T11:09:29;39.00;34.50;22.00
73148;PMS7003;61346;48.930;2.266;2023-03-01T11:12:02;41.75;33.50;23.00
73148;PMS7003;61346;48.930;2.266;2023-03-01T11:14:32;31.75;29.25;18.25
73148;PMS7003;61346;48.930;2.266;2023-03-01T11:17:04;40.25;34.75;23.00
73148;PMS7003;61346;48.930;2.266;2023-03-01T13:09:26;39.25;34.50;23.00
73148;PMS7003;61346;48.930;2.266;2023-03-01T13:15:32;41.50;34.75;21.25
73148;PMS7003;61346;48.930;2.266;2023-03-01T13:18:34;38.75;32.00;21.50
73148;PMS7003;61346;48.930;2.266;2023-03-01T13:21:00;42.50;34.75;22.75
73148;PMS7003;61346;48.930;2.266;2023-03-01T13:23:52;37.00;33.25;22.00
73148;PMS7003;61346;48.930;2.266;2023-03-01T13:30:01;41.00;35.75;23.50
73148;PMS7003;61346;48.930;2.266;2023-03-01T13:35:59;41.00;36.00;23.00
73148;PMS7003;61346;48.930;2.266;2023-03-01T13:50:33;25.25;23.75;19.50
73148;PMS7003;61346;48.930;2.266;2023-03-01T13:53:11;41.00;35.00;23.00
73148;PMS7003;61346;48.930;2.266;2023-03-01T14:05:58;37.50;34.00;23.00
73148;PMS7003;61346;48.930;2.266;2023-03-01T14:08:49;43.50;36.75;23.50
73148;PMS7003;61346;48.930;2.266;2023-03-01T14:26:21;43.50;35.00;23.50
73148;PMS7003;61346;48.930;2.266;2023-03-01T14:28:50;41.00;32.75;23.50
73148;PMS7003;61346;48.930;2.266;2023-03-01T14:34:32;45.25;34.00;24.00
73148;PMS7003;61346;48.930;2.266;2023-03-01T14:37:17;40.50;34.75;24.25
73148;PMS7003;61346;48.930;2.266;2023-03-01T14:40:36;43.75;35.75;23.75
73148;PMS7003;61346;48.930;2.266;2023-03-01T14:43:25;41.50;34.75;23.25
73148;PMS7003;61346;48.930;2.266;2023-03-01T14:49:43;40.00;33.25;23.75
73148;PMS7003;61346;48.930;2.266;2023-03-01T14:52:21;36.50;33.00;23.00
73148;PMS7003;61346;48.930;2.266;2023-03-01T14:55:02;40.25;35.00;23.00
73148;PMS7003;61346;48.930;2.266;2023-03-01T14:57:31;37.25;33.50;23.00
73148;PMS7003;61346;48.930;2.266;2023-03-01T15:00:04;36.50;32.25;23.00
73148;PMS7003;61346;48.930;2.266;2023-03-01T15:03:26;40.50;34.75;22.50
73148;PMS7003;61346;48.930;2.266;2023-03-01T15:06:09;36.25;33.50;22.50
73148;PMS7003;61346;48.930;2.266;2023-03-01T15:08:37;36.25;33.00;22.75
73148;PMS7003;61346;48.930;2.266;2023-03-01T15:14:54;35.75;32.25;21.00
73148;PMS7003;61346;48.930;2.266;2023-03-01T15:20:16;34.50;31.25;22.00
73148;PMS7003;61346;48.930;2.266;2023-03-01T15:23:05;36.50;30.75;21.00
73148;PMS7003;61346;48.930;2.266;2023-03-01T15:26:02;35.50;31.25;21.25
73148;PMS7003;61346;48.930;2.266;2023-03-01T15:28:31;43.25;36.75;23.00
73148;PMS7003;61346;48.930;2.266;2023-03-01T15:34:10;38.00;31.25;21.00
73148;PMS7003;61346;48.930;2.266;2023-03-01T15:36:48;32.50;31.25;21.00
73148;PMS7003;61346;48.930;2.266;2023-03-01T15:42:03;33.75;31.00;21.00
73148;PMS7003;61346;48.930;2.266;2023-03-01T15:45:06;29.75;29.75;22.50
73148;PMS7003;61346;48.930;2.266;2023-03-01T15:47:48;35.00;31.75;21.50
73148;PMS7003;61346;48.930;2.266;2023-03-01T15:50:19;37.25;34.00;22.00
73148;PMS7003;61346;48.930;2.266;2023-03-01T15:52:50;32.25;30.75;18.75
73148;PMS7003;61346;48.930;2.266;2023-03-01T15:55:17;36.25;32.50;21.50
73148;PMS7003;61346;48.930;2.266;2023-03-01T15:57:48;42.50;32.75;21.75
73148;PMS7003;61346;48.930;2.266;2023-03-01T16:00:16;31.25;31.00;21.50
73148;PMS7003;61346;48.930;2.266;2023-03-01T16:02:43;38.50;34.00;22.50
73148;PMS7003;61346;48.930;2.266;2023-03-01T16:08:04;41.75;31.00;21.00
73148;PMS7003;61346;48.930;2.266;2023-03-01T16:10:51;32.00;29.50;20.25
73148;PMS7003;61346;48.930;2.266;2023-03-01T16:13:37;30.75;29.75;20.75
73148;PMS7003;61346;48.930;2.266;2023-03-01T16:16:02;31.50;29.50;20.00
73148;PMS7003;61346;48.930;2.266;2023-03-01T16:18:33;32.25;28.00;20.00
73148;PMS7003;61346;48.930;2.266;2023-03-01T16:21:21;28.25;26.25;17.50
73148;PMS7003;61346;48.930;2.266;2023-03-01T16:23:49;28.00;27.25;18.50
73148;PMS7003;61346;48.930;2.266;2023-03-01T16:26:20;23.25;22.25;16.75
73148;PMS7003;61346;48.930;2.266;2023-03-01T16:32:01;31.25;27.50;18.75
73148;PMS7003;61346;48.930;2.266;2023-03-01T16:34:36;25.00;23.75;16.00
73148;PMS7003;61346;48.930;2.266;2023-03-01T16:40:41;31.75;28.25;19.25
73148;PMS7003;61346;48.930;2.266;2023-03-01T16:43:22;24.00;21.50;17.00
73148;PMS7003;61346;48.930;2.266;2023-03-01T16:45:50;32.00;27.25;19.00
73148;PMS7003;61346;48.930;2.266;2023-03-01T16:48:16;18.00;17.50;14.75
73148;PMS7003;61346;48.930;2.266;2023-03-01T16:50:44;28.00;25.00;18.00
73148;PMS7003;61346;48.930;2.266;2023-03-01T16:53:19;28.25;25.50;18.00
73148;PMS7003;61346;48.930;2.266;2023-03-01T16:55:52;27.00;25.25;17.25
73148;PMS7003;61346;48.930;2.266;2023-03-01T16:58:18;33.25;27.00;18.00
73148;PMS7003;61346;48.930;2.266;2023-03-01T17:00:43;30.75;28.00;18.00
73148;PMS7003;61346;48.930;2.266;2023-03-01T17:06:16;35.25;31.00;21.25
73148;PMS7003;61346;48.930;2.266;2023-03-01T17:08:48;28.50;26.25;19.25
73148;PMS7003;61346;48.930;2.266;2023-03-01T17:11:17;32.75;27.75;18.75
73148;PMS7003;61346;48.930;2.266;2023-03-01T17:13:53;30.25;26.25;16.50
73148;PMS7003;61346;48.930;2.266;2023-03-01T17:16:26;31.25;28.50;19.50
73148;PMS7003;61346;48.930;2.266;2023-03-01T17:19:20;31.25;26.00;19.00
73148;PMS7003;61346;48.930;2.266;2023-03-01T17:21:56;30.00;27.75;18.25
73148;PMS7003;61346;48.930;2.266;2023-03-01T17:24:22;27.25;24.50;18.50
73148;PMS7003;61346;48.930;2.266;2023-03-01T17:26:56;35.50;28.25;16.75
73148;PMS7003;61346;48.930;2.266;2023-03-01T17:29:22;31.50;25.50;17.75
73148;PMS7003;61346;48.930;2.266;2023-03-01T17:31:48;34.00;29.00;20.00
73148;PMS7003;61346;48.930;2.266;2023-03-01T17:34:14;35.00;30.00;19.00
73148;PMS7003;61346;48.930;2.266;2023-03-01T17:36:40;30.50;28.00;18.50
73148;PMS7003;61346;48.930;2.266;2023-03-01T17:39:20;33.25;30.25;18.25
73148;PMS7003;61346;48.930;2.266;2023-03-01T17:41:52;34.00;29.50;17.75
73148;PMS7003;61346;48.930;2.266;2023-03-01T17:47:47;29.25;24.75;17.50
73148;PMS7003;61346;48.930;2.266;2023-03-01T17:50:14;33.75;29.50;19.75
73148;PMS7003;61346;48.930;2.266;2023-03-01T17:52:39;34.00;31.25;19.75
73148;PMS7003;61346;48.930;2.266;2023-03-01T17:58:03;33.50;29.50;18.50
73148;PMS7003;61346;48.930;2.266;2023-03-01T18:00:42;31.75;30.50;20.00
73148;PMS7003;61346;48.930;2.266;2023-03-01T18:03:51;34.75;29.00;18.75
73148;PMS7003;61346;48.930;2.266;2023-03-01T18:06:40;36.75;32.00;19.50
73148;PMS7003;61346;48.930;2.266;2023-03-01T18:11:54;34.50;31.75;21.00
73148;PMS7003;61346;48.930;2.266;2023-03-01T18:14:20;36.00;29.00;19.50
73148;PMS7003;61346;48.930;2.266;2023-03-01T18:16:45;28.75;28.50;19.50
73148;PMS7003;61346;48.930;2.266;2023-03-01T18:19:15;28.75;26.00;18.25
73148;PMS7003;61346;48.930;2.266;2023-03-01T19:30:52;35.00;31.25;22.00
73148;PMS7003;61346;48.930;2.266;2023-03-01T19:34:18;38.50;32.75;22.00
73148;PMS7003;61346;48.930;2.266;2023-03-01T20:34:46;35.50;31.25;19.25
73148;PMS7003;61346;48.930;2.266;2023-03-01T22:07:41;36.50;35.75;24.00
73148;PMS7003;61346;48.930;2.266;2023-03-01T22:25:31;39.50;36.00;23.00
73148;PMS7003;61346;48.930;2.266;2023-03-01T22:28:31;35.25;32.75;22.75
73148;PMS7003;61346;48.930;2.266;2023-03-01T22:49:30;37.00;34.25;23.75
73148;PMS7003;61346;48.930;2.266;2023-03-01T23:04:30;40.00;36.00;22.50
73148;PMS7003;61346;48.930;2.266;2023-03-01T23:10:13;41.00;37.00;22.75
73148;PMS7003;61346;48.930;2.266;2023-03-01T23:12:40;31.50;28.75;20.75
73148;PMS7003;61346;48.930;2.266;2023-03-01T23:15:06;38.00;31.25;21.00
73148;PMS7003;61346;48.930;2.266;2023-03-01T23:17:34;37.00;32.75;23.75
73148;PMS7003;61346;48.930;2.266;2023-03-01T23:20:00;38.25;35.25;22.50
73148;PMS7003;61346;48.930;2.266;2023-03-01T23:22:29;41.25;34.50;24.00
73148;PMS7003;61346;48.930;2.266;2023-03-01T23:24:54;43.00;38.00;24.25
73148;PMS7003;61346;48.930;2.266;2023-03-01T23:27:20;42.50;36.50;24.00
73148;PMS7003;61346;48.930;2.266;2023-03-01T23:29:50;51.50;37.50;24.00
73148;PMS7003;61346;48.930;2.266;2023-03-01T23:32:17;46.50;39.00;22.75
73148;PMS7003;61346;48.930;2.266;2023-03-01T23:34:42;41.00;35.50;23.25
73148;PMS7003;61346;48.930;2.266;2023-03-01T23:37:07;32.75;30.50;21.75
73148;PMS7003;61346;48.930;2.266;2023-03-01T23:39:34;37.75;30.50;21.75
73148;PMS7003;61346;48.930;2.266;2023-03-01T23:42:00;40.00;34.00;23.00
73148;PMS7003;61346;48.930;2.266;2023-03-01T23:44:25;40.75;32.50;23.75
73148;PMS7003;61346;48.930;2.266;2023-03-01T23:46:51;42.50;35.75;23.00
73148;PMS7003;61346;48.930;2.266;2023-03-01T23:49:17;41.25;34.00;22.75
73148;PMS7003;61346;48.930;2.266;2023-03-01T23:51:44;38.00;28.00;22.75
73148;PMS7003;61346;48.930;2.266;2023-03-01T23:54:12;41.00;26.50;22.25
73148;PMS7003;61346;48.930;2.266;2023-03-01T23:56:40;41.25;32.00;22.00
73148;PMS7003;61346;48.930;2.266;2023-03-01T23:59:14;41.75;33.50;23.00
